Time;durP1;ratioP1;P1;durP2;ratioP2;P2;SDS_P1;SDS_P2;PMS_P1;PMS_P2;Temp;Humidity;BMP_temperature;BMP_pressure;BME280_temperature;BME280_humidity;BME280_pressure;Samples;Min_cycle;Max_cycle;Signal;HPM_P1;HPM_P2
2022/10/12 00:02:21;;;;;;;0.70;0.70;;;;;;;16.38;100.00;100056.53;5031184;28;20263;-66
2022/10/12 00:04:48;;;;;;;0.60;0.60;;;;;;;16.37;100.00;100060.06;5030671;28;20700;-66
2022/10/12 00:07:15;;;;;;;0.83;0.83;;;;;;;16.37;100.00;100057.47;5032481;28;20267;-65
2022/10/12 00:09:42;;;;;;;0.50;0.50;;;;;;;16.35;100.00;100055.88;5033008;28;20558;-66
2022/10/12 00:12:10;;;;;;;0.47;0.47;;;;;;;16.29;100.00;100062.13;5032012;28;20198;-65
2022/10/12 00:14:37;;;;;;;0.70;0.70;;;;;;;16.27;100.00;100061.34;5030835;28;20206;-66
2022/10/12 00:17:04;;;;;;;0.93;0.93;;;;;;;16.27;100.00;100056.19;5032656;28;20589;-66
2022/10/12 00:19:31;;;;;;;1.07;1.07;;;;;;;16.24;100.00;100056.31;5034013;28;20217;-66
2022/10/12 00:21:58;;;;;;;0.60;0.60;;;;;;;16.29;100.00;100062.13;5032477;28;20205;-66
2022/10/12 00:24:25;;;;;;;0.80;0.80;;;;;;;16.26;100.00;100049.31;5032470;28;20201;-66
2022/10/12 00:26:52;;;;;;;0.60;0.60;;;;;;;16.28;100.00;100048.34;5032331;28;20274;-66
2022/10/12 00:29:20;;;;;;;0.70;0.70;;;;;;;16.31;100.00;100057.75;5033156;28;20197;-65
2022/10/12 00:31:47;;;;;;;0.50;0.50;;;;;;;16.31;100.00;100047.41;5032530;28;20213;-66
2022/10/12 00:34:14;;;;;;;0.87;0.87;;;;;;;16.33;100.00;100055.91;5032311;28;20233;-65
2022/10/12 00:36:41;;;;;;;0.67;0.67;;;;;;;16.32;100.00;100049.06;5032224;28;20205;-66
2022/10/12 00:39:09;;;;;;;0.50;0.50;;;;;;;16.31;100.00;100057.75;5032404;28;20217;-65
2022/10/12 00:41:39;;;;;;;0.43;0.43;;;;;;;16.36;100.00;100054.94;5032482;28;20208;-67
2022/10/12 00:44:36;;;;;;;1.33;1.33;;;;;;;16.40;100.00;100062.50;5031946;28;20639;-66
2022/10/12 00:47:08;;;;;;;0.80;0.80;;;;;;;16.41;100.00;100060.78;5031575;28;20213;-66
2022/10/12 00:49:35;;;;;;;0.80;0.80;;;;;;;16.43;100.00;100061.53;5031954;28;20293;-66
2022/10/12 00:52:06;;;;;;;0.60;0.60;;;;;;;16.46;100.00;100061.41;5030886;28;20628;-66
2022/10/12 00:54:41;;;;;;;0.60;0.60;;;;;;;16.38;100.00;100043.59;5032036;28;20206;-66
2022/10/12 00:57:11;;;;;;;1.07;0.77;;;;;;;16.45;100.00;100059.72;5033090;28;20200;-65
2022/10/12 00:59:44;;;;;;;0.83;0.83;;;;;;;16.37;100.00;100049.72;5032733;28;20212;-66
2022/10/12 01:02:12;;;;;;;0.43;0.43;;;;;;;16.40;100.00;100053.91;5031993;28;20750;-66
2022/10/12 01:04:40;;;;;;;0.97;0.97;;;;;;;16.40;100.00;100049.56;5031769;28;20201;-66
2022/10/12 01:07:06;;;;;;;0.80;0.80;;;;;;;16.41;100.00;100048.69;5031180;28;20212;-67
2022/10/12 01:09:33;;;;;;;0.50;0.50;;;;;;;16.43;100.00;100052.03;5031624;28;20680;-66
2022/10/12 01:12:00;;;;;;;1.70;1.70;;;;;;;16.31;100.00;100026.69;5031101;28;20704;-66
2022/10/12 01:14:27;;;;;;;0.90;0.90;;;;;;;16.45;100.00;100045.03;5030775;28;20208;-65
2022/10/12 01:17:03;;;;;;;0.60;0.60;;;;;;;16.44;100.00;100043.38;5030689;28;20209;-66
2022/10/12 01:19:57;;;;;;;0.70;0.70;;;;;;;16.45;100.00;100042.44;5031116;28;20224;-66
2022/10/12 01:22:24;;;;;;;0.50;0.50;;;;;;;16.48;100.00;100049.25;5027386;28;20198;-66
2022/10/12 01:24:53;;;;;;;0.50;0.50;;;;;;;16.45;100.00;100050.19;5031278;28;20200;-66
2022/10/12 01:27:41;;;;;;;0.60;0.60;;;;;;;16.39;100.00;100040.13;5031490;28;20198;-66
2022/10/12 01:30:20;;;;;;;0.40;0.40;;;;;;;16.42;100.00;100045.16;5028594;28;20200;-65
2022/10/12 01:33:09;;;;;;;0.80;0.80;;;;;;;16.48;100.00;100055.25;5031114;28;20204;-66
2022/10/12 01:35:43;;;;;;;0.77;0.77;;;;;;;16.49;100.00;100056.94;5031030;28;20201;-66
2022/10/12 01:38:21;;;;;;;0.90;0.90;;;;;;;16.48;100.00;100057.84;5031685;28;20227;-66
2022/10/12 01:40:55;;;;;;;0.43;0.43;;;;;;;16.47;100.00;100051.00;5029089;28;20201;-66
2022/10/12 01:43:22;;;;;;;0.77;0.77;;;;;;;16.49;100.00;100059.53;5030113;28;20197;-66
2022/10/12 01:45:51;;;;;;;0.57;0.57;;;;;;;16.45;100.00;100057.97;5030064;28;20286;-66
2022/10/12 01:48:18;;;;;;;0.50;0.50;;;;;;;16.42;100.00;100058.09;5030084;28;20193;-66
2022/10/12 01:50:49;;;;;;;0.80;0.80;;;;;;;16.39;100.00;100052.22;5030836;28;20259;-66
2022/10/12 01:53:24;;;;;;;0.53;0.53;;;;;;;16.43;100.00;100062.38;5031099;28;20843;-66
2022/10/12 01:55:57;;;;;;;0.70;0.70;;;;;;;16.43;100.00;100064.13;5031325;28;20208;-66
2022/10/12 01:58:38;;;;;;;0.50;0.50;;;;;;;16.29;100.00;100044.84;5031013;28;20230;-66
2022/10/12 02:01:19;;;;;;;0.80;0.80;;;;;;;16.42;100.00;100065.03;5029698;28;20213;-66
2022/10/12 02:03:53;;;;;;;0.67;0.67;;;;;;;16.40;100.00;100064.25;5028611;28;20211;-66
2022/10/12 02:06:23;;;;;;;0.77;0.77;;;;;;;16.33;100.00;100063.69;5028710;28;20225;-66
2022/10/12 02:08:58;;;;;;;0.40;0.40;;;;;;;16.32;100.00;100064.56;5025988;28;20685;-66
2022/10/12 02:11:27;;;;;;;0.50;0.50;;;;;;;16.30;100.00;100066.41;5027745;28;20216;-66
2022/10/12 02:13:59;;;;;;;0.70;0.70;;;;;;;16.25;100.00;100058.00;5023613;28;20711;-66
2022/10/12 02:16:32;;;;;;;0.70;0.70;;;;;;;16.29;100.00;100070.72;5029964;28;20201;-67
2022/10/12 02:19:00;;;;;;;0.87;0.87;;;;;;;16.32;100.00;100068.94;5028015;28;20597;-65
2022/10/12 02:21:31;;;;;;;0.40;0.40;;;;;;;16.34;100.00;100062.78;5030914;28;20670;-66
2022/10/12 02:24:01;;;;;;;0.77;0.77;;;;;;;16.35;100.00;100064.44;5030607;28;20193;-66
2022/10/12 02:26:29;;;;;;;0.73;0.73;;;;;;;16.35;100.00;100064.44;5030757;28;20197;-66
2022/10/12 02:28:59;;;;;;;0.50;0.50;;;;;;;16.35;100.00;100069.63;5030827;28;20197;-66
2022/10/12 02:31:35;;;;;;;0.87;0.87;;;;;;;16.34;100.00;100065.38;5030451;28;20200;-66
2022/10/12 02:34:09;;;;;;;0.43;0.43;;;;;;;16.28;100.00;100053.50;5030365;28;20204;-66
2022/10/12 02:36:42;;;;;;;0.83;0.83;;;;;;;16.36;100.00;100068.72;5030632;28;20200;-67
2022/10/12 02:39:14;;;;;;;0.80;0.80;;;;;;;16.31;100.00;100062.91;5032856;28;20217;-66
2022/10/12 02:41:46;;;;;;;0.53;0.53;;;;;;;16.28;100.00;100074.22;5030458;28;20688;-65
2022/10/12 02:44:17;;;;;;;0.80;0.80;;;;;;;16.28;100.00;100078.56;5030222;28;20209;-65
2022/10/12 02:46:48;;;;;;;0.63;0.63;;;;;;;16.27;100.00;100075.16;5030105;28;20208;-66
2022/10/12 02:49:17;;;;;;;0.60;0.60;;;;;;;16.26;100.00;100072.59;5030547;28;20197;-66
2022/10/12 02:51:45;;;;;;;0.50;0.50;;;;;;;16.28;100.00;100074.22;5030229;28;20724;-66
2022/10/12 02:54:12;;;;;;;0.40;0.40;;;;;;;16.27;100.00;100069.13;5029996;28;20226;-66
2022/10/12 02:56:44;;;;;;;0.53;0.53;;;;;;;16.28;100.00;100084.56;5030113;28;20209;-66
2022/10/12 02:59:11;;;;;;;0.50;0.50;;;;;;;16.19;100.00;100079.78;5029953;28;20228;-66
2022/10/12 03:01:37;;;;;;;0.50;0.50;;;;;;;16.13;100.00;100079.19;5030365;28;20201;-66
2022/10/12 03:04:06;;;;;;;0.50;0.50;;;;;;;16.18;100.00;100082.47;5030043;28;20204;-66
2022/10/12 03:06:32;;;;;;;0.60;0.60;;;;;;;16.14;100.00;100081.75;5011776;28;20240;-66
2022/10/12 03:09:00;;;;;;;0.60;0.60;;;;;;;15.97;100.00;100062.63;5009195;28;20742;-66
2022/10/12 03:11:29;;;;;;;0.60;0.60;;;;;;;16.11;100.00;100081.03;5010278;28;20202;-66
2022/10/12 03:13:56;;;;;;;0.70;0.70;;;;;;;16.10;100.00;100075.00;5010648;28;20268;-66
2022/10/12 03:16:24;;;;;;;0.40;0.40;;;;;;;16.06;100.00;100082.94;5010454;28;20201;-67
2022/10/12 03:18:52;;;;;;;0.53;0.53;;;;;;;15.96;100.00;100053.22;5010274;28;20297;-66
2022/10/12 03:21:20;;;;;;;0.70;0.70;;;;;;;16.14;100.00;100080.91;5010169;28;20209;-65
2022/10/12 03:23:47;;;;;;;0.60;0.60;;;;;;;16.18;100.00;100077.28;5010305;28;20208;-66
2022/10/12 03:26:13;;;;;;;0.90;0.90;;;;;;;16.18;100.00;100069.53;5010559;28;20618;-66
2022/10/12 03:28:40;;;;;;;0.50;0.50;;;;;;;16.16;100.00;100076.50;5009998;28;20200;-66
2022/10/12 03:31:07;;;;;;;0.50;0.50;;;;;;;16.05;100.00;100061.44;5013776;28;20202;-66
2022/10/12 03:33:34;;;;;;;0.67;0.67;;;;;;;16.15;100.00;100075.66;5013555;28;20249;-66
2022/10/12 03:36:01;;;;;;;0.60;0.60;;;;;;;16.16;100.00;100068.72;5013710;28;20205;-66
2022/10/12 03:38:29;;;;;;;0.40;0.40;;;;;;;15.98;100.00;100048.81;5014478;28;20225;-66
2022/10/12 03:40:56;;;;;;;0.40;0.40;;;;;;;16.13;100.00;100076.63;5013246;28;20194;-66
2022/10/12 03:43:23;;;;;;;0.50;0.50;;;;;;;16.03;100.00;100057.22;5013804;28;20202;-66
2022/10/12 03:45:51;;;;;;;0.60;0.60;;;;;;;16.09;100.00;100077.69;5013693;28;20194;-66
2022/10/12 03:48:18;;;;;;;0.43;0.43;;;;;;;16.10;100.00;100076.75;5012891;28;20224;-66
2022/10/12 03:50:49;;;;;;;0.50;0.50;;;;;;;16.07;100.00;100079.47;5011774;28;20224;-66
2022/10/12 03:53:16;;;;;;;0.60;0.60;;;;;;;16.00;100.00;100068.53;5011943;28;20216;-66
2022/10/12 03:55:44;;;;;;;0.60;0.60;;;;;;;15.96;100.00;100076.50;5012913;28;20202;-66
2022/10/12 03:58:12;;;;;;;0.70;0.70;;;;;;;15.95;100.00;100079.97;5013199;28;20231;-65
2022/10/12 04:00:39;;;;;;;0.47;0.47;;;;;;;15.93;100.00;100074.03;5012864;28;20264;-66
2022/10/12 04:03:05;;;;;;;0.50;0.50;;;;;;;15.89;100.00;100080.22;5011802;28;20230;-66
2022/10/12 04:05:32;;;;;;;0.40;0.40;;;;;;;15.91;100.00;100074.09;5020669;28;20601;-66
2022/10/12 04:07:59;;;;;;;0.53;0.53;;;;;;;15.93;100.00;100082.63;5031025;28;20585;-66
2022/10/12 04:10:26;;;;;;;0.40;0.40;;;;;;;15.90;100.00;100082.75;5028874;28;20207;-66
2022/10/12 04:12:54;;;;;;;0.57;0.57;;;;;;;15.83;100.00;100062.38;5030731;28;20209;-66
2022/10/12 04:15:21;;;;;;;0.50;0.50;;;;;;;15.89;100.00;100070.75;5031858;28;20220;-66
2022/10/12 04:17:48;;;;;;;0.50;0.50;;;;;;;15.90;100.00;100082.75;5033445;28;20205;-66
2022/10/12 04:20:15;;;;;;;0.60;0.60;;;;;;;15.92;100.00;100080.94;5035958;28;20240;-66
2022/10/12 04:22:42;;;;;;;0.70;0.70;;;;;;;15.77;100.00;100048.78;5034087;28;20212;-66
2022/10/12 04:25:11;;;;;;;0.50;0.50;;;;;;;15.97;100.00;100078.16;5033257;28;20211;-66
2022/10/12 04:27:38;;;;;;;0.43;0.43;;;;;;;15.99;100.00;100081.53;5031213;28;20578;-67
2022/10/12 04:30:07;;;;;;;0.93;0.93;;;;;;;16.00;100.00;100083.19;5032008;28;20631;-66
2022/10/12 04:32:34;;;;;;;0.50;0.50;;;;;;;15.99;100.00;100082.38;5032374;28;20672;-66
2022/10/12 04:35:01;;;;;;;0.60;0.60;;;;;;;16.01;100.00;100090.06;5032341;28;20211;-66
2022/10/12 04:37:28;;;;;;;0.53;0.53;;;;;;;16.03;100.00;100096.00;5032300;28;20205;-66
2022/10/12 04:39:54;;;;;;;0.50;0.50;;;;;;;16.07;100.00;100094.97;5032253;28;20209;-66
2022/10/12 04:42:21;;;;;;;0.33;0.33;;;;;;;16.10;100.00;100089.69;5031422;28;20201;-65
2022/10/12 04:44:48;;;;;;;0.80;0.80;;;;;;;16.10;100.00;100095.69;5032446;28;20202;-66
2022/10/12 04:47:16;;;;;;;0.50;0.50;;;;;;;16.14;100.00;100096.41;5031853;28;20208;-66
2022/10/12 04:49:43;;;;;;;0.87;0.87;;;;;;;16.15;100.00;100096.38;5032527;28;20200;-66
2022/10/12 04:52:10;;;;;;;0.40;0.40;;;;;;;16.14;100.00;100099.00;5031961;28;20207;-66
2022/10/12 04:54:37;;;;;;;1.10;1.10;;;;;;;16.09;100.00;100103.53;5032656;28;20203;-66
2022/10/12 04:57:04;;;;;;;0.40;0.40;;;;;;;16.00;100.00;100089.22;5031491;28;20205;-67
2022/10/12 04:59:31;;;;;;;0.47;0.47;;;;;;;16.06;100.00;100104.47;5031302;28;20218;-66
2022/10/12 05:01:58;;;;;;;0.60;0.60;;;;;;;16.04;100.00;100101.13;5030631;28;20213;-66
2022/10/12 05:04:26;;;;;;;0.50;0.50;;;;;;;16.04;100.00;100102.88;5032600;28;20693;-66
2022/10/12 05:06:53;;;;;;;0.50;0.50;;;;;;;16.02;100.00;100104.69;5031929;28;20656;-66
2022/10/12 05:09:20;;;;;;;0.60;0.60;;;;;;;16.04;100.00;100105.47;5031819;28;20200;-66
2022/10/12 05:11:47;;;;;;;0.60;0.60;;;;;;;16.06;100.00;100116.56;5031330;28;20589;-66
2022/10/12 05:14:14;;;;;;;0.40;0.40;;;;;;;16.05;100.00;100112.31;5031191;28;20216;-66
2022/10/12 05:16:40;;;;;;;0.70;0.70;;;;;;;16.01;100.00;100110.75;5031273;28;20224;-66
2022/10/12 05:19:07;;;;;;;0.50;0.50;;;;;;;16.07;100.00;100131.19;5030875;28;20632;-65
2022/10/12 05:21:36;;;;;;;0.50;0.50;;;;;;;16.11;100.00;100127.59;5028440;28;20263;-66
2022/10/12 05:24:02;;;;;;;0.60;0.60;;;;;;;16.12;100.00;100124.09;5030074;28;20209;-66
2022/10/12 05:26:29;;;;;;;0.50;0.50;;;;;;;16.12;100.00;100132.69;5032408;28;20206;-66
2022/10/12 05:28:57;;;;;;;0.50;0.50;;;;;;;16.10;100.00;100138.81;5027356;28;20211;-66
2022/10/12 05:31:24;;;;;;;0.80;0.80;;;;;;;16.09;100.00;100135.41;5022992;28;20252;-66
2022/10/12 05:33:50;;;;;;;0.50;0.50;;;;;;;16.13;100.00;100141.28;5027910;28;20197;-66
2022/10/12 05:36:17;;;;;;;0.70;0.70;;;;;;;16.18;100.00;100131.59;5028991;28;20205;-67
2022/10/12 05:38:45;;;;;;;0.40;0.40;;;;;;;16.20;100.00;100137.53;5029018;28;20202;-67
2022/10/12 05:41:12;;;;;;;0.60;0.60;;;;;;;16.21;100.00;100139.25;5029927;28;20201;-67
2022/10/12 05:43:39;;;;;;;0.60;0.60;;;;;;;16.22;100.00;100140.91;5029836;28;20574;-67
2022/10/12 05:46:06;;;;;;;1.00;1.00;;;;;;;16.25;100.00;100140.81;5026166;28;20201;-67
2022/10/12 05:48:33;;;;;;;0.80;0.80;;;;;;;16.29;100.00;100155.28;5024029;28;20554;-67
2022/10/12 05:51:00;;;;;;;0.60;0.60;;;;;;;16.26;100.00;100153.66;5026078;28;20202;-67
2022/10/12 05:53:27;;;;;;;0.60;0.60;;;;;;;16.20;100.00;100132.38;5025862;28;20559;-67
2022/10/12 05:55:57;;;;;;;0.80;0.80;;;;;;;16.28;100.00;100151.03;5025663;28;20659;-67
2022/10/12 05:58:26;;;;;;;0.63;0.63;;;;;;;16.23;100.00;100145.19;5025312;28;20219;-67
2022/10/12 06:00:53;;;;;;;0.50;0.50;;;;;;;16.28;100.00;100158.78;5027311;28;20224;-67
2022/10/12 06:03:20;;;;;;;0.50;0.50;;;;;;;16.31;100.00;100161.25;5030562;28;20227;-67
2022/10/12 06:05:47;;;;;;;0.50;0.50;;;;;;;16.30;100.00;100169.91;5031026;28;20228;-67
2022/10/12 06:08:14;;;;;;;0.60;0.60;;;;;;;16.31;100.00;100169.00;5029754;28;20220;-67
2022/10/12 06:10:46;;;;;;;0.70;0.70;;;;;;;16.29;100.00;100168.22;5030461;28;20678;-67
2022/10/12 06:13:16;;;;;;;2.03;1.93;;;;;;;16.33;100.00;100176.69;5029992;28;20311;-67
2022/10/12 06:15:44;;;;;;;0.50;0.50;;;;;;;16.38;100.00;100183.34;5030680;28;20201;-67
2022/10/12 06:18:11;;;;;;;0.60;0.60;;;;;;;16.42;100.00;100181.47;5031215;28;20198;-67
2022/10/12 06:20:38;;;;;;;0.40;0.40;;;;;;;16.47;100.00;100188.16;5030777;28;20213;-68
2022/10/12 06:23:05;;;;;;;0.73;0.73;;;;;;;16.50;100.00;100190.63;5031214;28;20204;-67
2022/10/12 06:25:32;;;;;;;0.80;0.80;;;;;;;16.49;100.00;100188.09;5031156;28;20573;-66
2022/10/12 06:27:59;;;;;;;0.50;0.50;;;;;;;16.56;100.00;100193.00;5029314;28;20220;-66
2022/10/12 06:30:27;;;;;;;0.80;0.80;;;;;;;16.59;100.00;100195.44;5025790;28;20206;-67
2022/10/12 06:32:54;;;;;;;1.40;1.40;;;;;;;16.60;100.00;100197.13;5031565;28;20205;-68
2022/10/12 06:35:21;;;;;;;0.60;0.60;;;;;;;16.63;100.00;100198.75;5029109;28;20202;-68
2022/10/12 06:37:51;;;;;;;0.50;0.50;;;;;;;16.61;99.95;100206.56;5030876;28;20193;-68
2022/10/12 06:40:18;;;;;;;0.53;0.53;;;;;;;16.64;99.88;100203.84;5029855;28;20217;-67
2022/10/12 06:42:45;;;;;;;0.70;0.70;;;;;;;16.69;99.78;100208.84;5029525;28;20204;-68
2022/10/12 06:45:12;;;;;;;0.60;0.60;;;;;;;16.71;99.59;100218.22;5029162;28;20198;-68
2022/10/12 06:47:40;;;;;;;0.70;0.70;;;;;;;16.74;99.92;100215.50;5028278;28;20209;-68
2022/10/12 06:50:08;;;;;;;0.40;0.40;;;;;;;16.75;99.83;100219.78;5028396;28;20204;-68
2022/10/12 06:52:35;;;;;;;0.50;0.50;;;;;;;16.80;99.87;100212.66;5029810;28;20197;-68
2022/10/12 06:55:02;;;;;;;0.50;0.50;;;;;;;16.84;98.97;100222.88;5026951;28;20216;-67
2022/10/12 06:57:29;;;;;;;0.60;0.60;;;;;;;16.85;98.70;100220.22;5029842;28;20201;-66
2022/10/12 06:59:56;;;;;;;0.93;0.93;;;;;;;16.88;99.06;100208.91;5033051;28;20228;-66
2022/10/12 07:02:23;;;;;;;2.57;0.93;;;;;;;16.90;98.85;100222.63;5031939;28;20201;-66
2022/10/12 07:04:52;;;;;;;0.40;0.40;;;;;;;16.91;98.69;100203.59;5030194;28;20251;-66
2022/10/12 07:07:19;;;;;;;0.63;0.63;;;;;;;16.96;98.58;100215.44;5034231;28;20666;-66
2022/10/12 07:09:46;;;;;;;0.70;0.70;;;;;;;16.99;98.41;100222.25;5034456;28;20607;-66
2022/10/12 07:12:13;;;;;;;0.50;0.50;;;;;;;16.98;98.29;100215.38;5034073;28;20202;-66
2022/10/12 07:14:40;;;;;;;0.97;0.97;;;;;;;17.05;97.78;100221.97;5032645;28;20263;-66
2022/10/12 07:17:07;;;;;;;0.73;0.73;;;;;;;17.07;96.95;100217.56;5026872;28;20197;-67
2022/10/12 07:19:33;;;;;;;0.77;0.77;;;;;;;17.08;96.53;100221.84;5033034;28;20282;-66
2022/10/12 07:22:02;;;;;;;0.60;0.60;;;;;;;17.08;96.66;100221.84;5033519;28;20208;-67
2022/10/12 07:24:35;;;;;;;0.40;0.40;;;;;;;17.10;96.88;100226.03;5033777;28;20498;-65
2022/10/12 07:27:03;;;;;;;0.60;0.60;;;;;;;17.18;96.32;100228.31;5034026;28;20198;-66
2022/10/12 07:29:30;;;;;;;0.40;0.40;;;;;;;17.17;95.52;100232.63;5033751;28;20198;-66
2022/10/12 07:31:58;;;;;;;0.53;0.53;;;;;;;17.15;94.79;100231.88;5033106;28;20259;-65
2022/10/12 07:34:24;;;;;;;0.50;0.50;;;;;;;17.18;94.69;100223.97;5032077;28;20205;-66
2022/10/12 07:36:51;;;;;;;0.50;0.50;;;;;;;17.16;95.00;100219.72;5034342;28;20221;-65
2022/10/12 07:39:21;;;;;;;0.43;0.43;;;;;;;17.24;94.94;100222.84;5033535;28;20205;-65
2022/10/12 07:41:47;;;;;;;0.70;0.70;;;;;;;17.28;95.48;100221.81;5033737;28;20202;-65
2022/10/12 07:44:14;;;;;;;0.50;0.50;;;;;;;17.30;96.19;100212.19;5037195;28;20197;-66
2022/10/12 07:46:41;;;;;;;0.40;0.40;;;;;;;17.35;94.53;100215.41;5035665;28;20456;-67
2022/10/12 07:49:09;;;;;;;0.73;0.73;;;;;;;17.52;93.81;100218.09;5030625;28;20201;-67
2022/10/12 07:51:37;;;;;;;0.43;0.43;;;;;;;17.50;92.23;100225.13;5033469;28;20589;-67
2022/10/12 07:54:04;;;;;;;0.50;0.50;;;;;;;17.55;92.31;100227.47;5031931;28;20205;-68
2022/10/12 07:56:32;;;;;;;0.40;0.40;;;;;;;17.53;92.13;100219.78;5032690;28;20209;-67
2022/10/12 07:58:59;;;;;;;1.00;1.00;;;;;;;17.57;91.30;100225.72;5030644;28;20201;-67
2022/10/12 08:01:28;;;;;;;0.50;0.50;;;;;;;17.60;90.98;100223.81;5029713;28;20228;-67
2022/10/12 08:03:56;;;;;;;0.40;0.40;;;;;;;17.60;90.96;100223.81;5024898;28;20205;-67
2022/10/12 08:06:25;;;;;;;0.50;0.50;;;;;;;17.69;90.35;100223.38;5029592;28;20225;-67
2022/10/12 08:08:52;;;;;;;0.50;0.50;;;;;;;17.70;90.36;100227.69;5028130;28;20221;-67
2022/10/12 08:11:21;;;;;;;0.60;0.60;;;;;;;17.73;89.63;100227.53;5029803;28;20212;-67
2022/10/12 08:13:49;;;;;;;0.50;0.50;;;;;;;17.78;90.75;100220.38;5030063;28;20199;-67
2022/10/12 08:16:19;;;;;;;0.40;0.40;;;;;;;17.86;91.18;100221.78;5027733;28;20526;-67
2022/10/12 08:18:46;;;;;;;0.50;0.50;;;;;;;17.97;90.39;100220.34;5029152;28;20209;-67
2022/10/12 08:21:14;;;;;;;0.47;0.47;;;;;;;17.99;89.44;100218.53;5030796;28;20696;-67
2022/10/12 08:23:43;;;;;;;0.50;0.50;;;;;;;18.11;89.26;100227.47;5031614;28;20201;-67
2022/10/12 08:26:10;;;;;;;0.57;0.57;;;;;;;18.21;88.20;100234.75;5031580;28;20281;-67
2022/10/12 08:28:37;;;;;;;0.47;0.47;;;;;;;18.14;87.20;100227.31;5028238;28;20248;-68
2022/10/12 08:31:10;;;;;;;0.50;0.50;;;;;;;18.12;87.38;100223.97;5029304;28;20585;-67
2022/10/12 08:33:37;;;;;;;0.40;0.40;;;;;;;18.18;88.20;100234.06;5030146;28;20202;-67
2022/10/12 08:36:06;;;;;;;0.50;0.50;;;;;;;18.14;87.20;100227.31;5031146;28;20627;-67
2022/10/12 08:38:33;;;;;;;0.47;0.47;;;;;;;18.13;87.26;100236.00;5030222;28;20668;-67
2022/10/12 08:41:11;;;;;;;0.47;0.47;;;;;;;18.17;87.87;100233.22;5031348;28;20222;-67
2022/10/12 08:43:52;;;;;;;0.50;0.50;;;;;;;18.30;88.45;100231.72;5030488;28;20267;-66
2022/10/12 08:46:23;;;;;;;0.50;0.50;;;;;;;18.30;86.29;100239.50;5029991;28;20262;-68
2022/10/12 08:48:55;;;;;;;0.40;0.40;;;;;;;18.36;85.76;100233.16;5029204;28;20956;-67
2022/10/12 08:51:26;;;;;;;0.50;0.50;;;;;;;18.43;85.56;100234.53;5029959;28;20221;-67
2022/10/12 08:53:57;;;;;;;0.33;0.33;;;;;;;18.53;85.64;100230.63;5027981;28;20220;-67
2022/10/12 08:56:24;;;;;;;0.40;0.40;;;;;;;18.61;86.21;100233.66;5030810;28;20210;-67
2022/10/12 08:58:53;;;;;;;0.47;0.47;;;;;;;18.59;85.53;100232.91;5027529;28;20203;-67
2022/10/12 09:01:29;;;;;;;0.40;0.40;;;;;;;18.63;85.41;100233.59;5030210;28;20308;-67
2022/10/12 09:04:17;;;;;;;0.33;0.33;;;;;;;18.68;85.39;100240.22;5020484;28;20214;-67
2022/10/12 09:06:49;;;;;;;0.70;0.70;;;;;;;18.75;84.81;100230.38;5027064;28;20235;-67
2022/10/12 09:09:38;;;;;;;0.50;0.50;;;;;;;18.81;83.84;100225.72;5028302;28;20964;-67
2022/10/12 09:12:22;;;;;;;0.63;0.63;;;;;;;18.92;83.93;100226.94;5027996;28;20645;-67
2022/10/12 09:14:53;;;;;;;0.50;0.50;;;;;;;18.94;84.06;100235.47;5028582;28;20202;-67
2022/10/12 09:17:29;;;;;;;0.50;0.50;;;;;;;19.00;82.76;100223.00;5028311;28;20206;-67
2022/10/12 09:20:04;;;;;;;0.40;0.40;;;;;;;19.05;83.25;100227.97;5029746;28;20217;-67
2022/10/12 09:22:32;;;;;;;0.50;0.50;;;;;;;19.05;83.31;100225.38;5030231;28;20204;-67
2022/10/12 09:25:01;;;;;;;0.40;0.40;;;;;;;19.25;84.03;100230.38;5030725;28;20985;-67
2022/10/12 09:27:30;;;;;;;0.53;0.53;;;;;;;19.33;83.39;100228.22;5029430;28;20281;-67
2022/10/12 09:30:00;;;;;;;0.80;0.80;;;;;;;19.47;84.43;100233.56;5030456;28;20206;-74
2022/10/12 09:32:55;;;;;;;0.30;0.30;;;;;;;19.55;80.89;100230.56;5028110;28;20570;-68
2022/10/12 09:35:22;;;;;;;0.50;0.50;;;;;;;19.65;81.79;100237.75;5032707;28;20233;-67
2022/10/12 09:37:53;;;;;;;0.40;0.40;;;;;;;19.74;80.73;100226.84;5029557;28;20208;-68
2022/10/12 09:40:23;;;;;;;0.50;0.50;;;;;;;19.78;80.29;100233.56;5031219;28;20215;-68
2022/10/12 09:42:51;;;;;;;0.40;0.40;;;;;;;19.87;81.52;100229.66;5030813;28;20199;-68
2022/10/12 09:45:20;;;;;;;0.60;0.60;;;;;;;19.87;79.35;100225.25;5031215;28;20206;-68
2022/10/12 09:48:16;;;;;;;0.43;0.43;;;;;;;19.98;79.44;100229.03;5032628;28;20206;-68
2022/10/12 09:50:47;;;;;;;0.50;0.50;;;;;;;19.87;78.83;100207.03;5028816;28;20681;-68
2022/10/12 09:53:31;;;;;;;0.40;0.40;;;;;;;19.93;78.59;100230.13;5032432;28;20215;-68
2022/10/12 09:56:02;;;;;;;0.40;0.40;;;;;;;19.95;78.58;100227.44;5029111;28;20639;-68
2022/10/12 09:58:30;;;;;;;0.50;0.50;;;;;;;19.95;78.71;100218.78;5030791;28;20285;-67
2022/10/12 10:01:20;;;;;;;0.40;0.40;;;;;;;20.04;79.14;100220.88;5031181;28;20226;-67
2022/10/12 10:03:51;;;;;;;0.50;0.50;;;;;;;19.81;78.38;100196.97;5030984;28;20681;-68
2022/10/12 10:06:24;;;;;;;0.50;0.50;;;;;;;19.86;78.89;100218.41;5030870;28;20226;-67
2022/10/12 10:08:52;;;;;;;0.47;0.47;;;;;;;19.77;78.92;100208.47;5028821;28;20262;-68
2022/10/12 10:11:23;;;;;;;0.70;0.70;;;;;;;19.89;79.45;100204.38;5025183;28;20199;-68
2022/10/12 10:13:53;;;;;;;0.40;0.40;;;;;;;19.96;80.60;100208.31;5025729;28;20286;-68
2022/10/12 10:16:22;;;;;;;0.80;0.80;;;;;;;20.04;79.86;100205.25;5029921;28;20706;-68
2022/10/12 10:18:57;;;;;;;0.30;0.30;;;;;;;20.03;80.19;100204.44;5028925;28;20213;-68
2022/10/12 10:21:27;;;;;;;0.40;0.40;;;;;;;20.08;80.69;100201.56;5030027;28;20892;-67
2022/10/12 10:23:55;;;;;;;0.50;0.50;;;;;;;20.07;77.92;100205.09;5029700;28;20210;-67
2022/10/12 10:26:23;;;;;;;0.67;0.67;;;;;;;19.97;77.91;100199.56;5028038;28;20586;-68
2022/10/12 10:28:53;;;;;;;0.40;0.40;;;;;;;20.07;77.83;100194.66;5029935;28;20238;-68
2022/10/12 10:31:24;;;;;;;0.40;0.40;;;;;;;20.07;77.19;100194.66;5031763;28;20211;-68
2022/10/12 10:34:12;;;;;;;0.43;0.43;;;;;;;20.06;78.08;100188.66;5029597;28;20207;-67
2022/10/12 10:36:44;;;;;;;0.50;0.50;;;;;;;20.11;77.68;100180.56;5029056;28;20203;-68
2022/10/12 10:39:19;;;;;;;0.30;0.30;;;;;;;20.20;78.49;100183.47;5030731;28;20632;-68
2022/10/12 10:41:46;;;;;;;0.50;0.50;;;;;;;20.29;78.56;100176.97;5029779;28;20233;-68
2022/10/12 10:44:26;;;;;;;0.50;0.50;;;;;;;20.29;78.31;100171.75;5028979;28;20539;-67
2022/10/12 10:46:54;;;;;;;0.33;0.33;;;;;;;20.29;76.19;100179.56;5029487;28;20234;-68
2022/10/12 10:49:34;;;;;;;0.40;0.40;;;;;;;20.25;75.98;100152.81;5029128;28;20208;-68
2022/10/12 10:52:02;;;;;;;0.40;0.40;;;;;;;20.54;75.48;100177.22;5029434;28;20923;-68
2022/10/12 10:54:31;;;;;;;0.50;0.50;;;;;;;20.52;74.78;100171.22;5029790;28;20216;-68
2022/10/12 10:57:01;;;;;;;0.60;0.60;;;;;;;20.53;74.05;100165.09;5029385;28;20219;-67
2022/10/12 10:59:46;;;;;;;0.40;0.40;;;;;;;20.61;74.20;100162.91;5029693;28;20211;-68
2022/10/12 11:02:30;;;;;;;0.40;0.40;;;;;;;20.64;75.40;100162.72;5021685;28;20692;-68
2022/10/12 11:05:06;;;;;;;0.60;0.60;;;;;;;20.68;75.57;100150.34;5030150;28;20281;-68
2022/10/12 11:07:39;;;;;;;0.40;0.40;;;;;;;20.78;74.02;100154.88;5030120;28;20240;-68
2022/10/12 11:10:21;;;;;;;0.60;0.60;;;;;;;20.91;73.88;100158.44;5029501;28;20585;-67
2022/10/12 11:12:54;;;;;;;0.77;0.50;;;;;;;20.97;73.07;100146.78;5029686;28;20303;-67
2022/10/12 11:15:26;;;;;;;0.40;0.40;;;;;;;20.89;73.13;100147.28;5027197;28;20216;-67
2022/10/12 11:17:59;;;;;;;0.50;0.50;;;;;;;20.86;73.69;100144.84;5030124;28;20271;-68
2022/10/12 11:20:36;;;;;;;0.40;0.40;;;;;;;20.88;72.47;100140.38;5030028;28;20208;-67
2022/10/12 11:23:14;;;;;;;0.50;0.50;;;;;;;20.86;71.62;100129.22;5029694;28;20209;-67
2022/10/12 11:25:50;;;;;;;0.30;0.30;;;;;;;20.93;73.04;100135.75;5027239;28;20200;-67
2022/10/12 11:28:17;;;;;;;0.40;0.40;;;;;;;20.93;72.51;100138.34;5027994;28;20209;-69
2022/10/12 11:30:48;;;;;;;0.60;0.60;;;;;;;20.70;71.79;100133.69;5028923;28;20209;-68
2022/10/12 11:33:22;;;;;;;0.60;0.60;;;;;;;20.72;72.10;100131.81;5028620;28;20669;-68
2022/10/12 11:35:53;;;;;;;0.40;0.40;;;;;;;20.85;73.93;100124.94;5029595;28;20231;-67